createdAt,value
2023-04-22T00:02:17.274Z,9.40
2023-04-22T00:04:46.608Z,9.25
2023-04-22T00:07:15.306Z,9.17
2023-04-22T00:09:42.511Z,9.09
2023-04-22T00:12:11.847Z,9.09
2023-04-22T00:14:38.986Z,9.11
2023-04-22T00:17:07.247Z,9.12
2023-04-22T00:19:34.894Z,9.13
2023-04-22T00:22:04.692Z,9.10
2023-04-22T00:24:31.394Z,9.09
2023-04-22T00:26:58.197Z,9.02
2023-04-22T00:29:28.024Z,9.01
2023-04-22T00:31:54.857Z,9.02
2023-04-22T00:34:21.964Z,9.04
2023-04-22T00:36:48.770Z,9.05
2023-04-22T00:39:15.500Z,9.03
2023-04-22T00:41:42.884Z,8.95
2023-04-22T00:44:11.467Z,8.85
2023-04-22T00:46:39.589Z,8.76
2023-04-22T00:49:07.784Z,8.63
2023-04-22T00:51:34.830Z,8.46
2023-04-22T00:54:02.099Z,8.42
2023-04-22T00:56:30.607Z,8.33
2023-04-22T00:58:57.929Z,8.31
2023-04-22T01:01:25.157Z,8.34
2023-04-22T01:03:53.147Z,8.32
2023-04-22T01:06:20.529Z,8.28
2023-04-22T01:08:47.935Z,8.22
2023-04-22T01:11:14.761Z,8.17
2023-04-22T01:13:41.864Z,8.15
2023-04-22T01:16:10.028Z,8.18
2023-04-22T01:18:37.373Z,8.20
2023-04-22T01:21:04.443Z,8.20
2023-04-22T01:23:31.377Z,8.14
2023-04-22T01:25:58.223Z,8.10
2023-04-22T01:28:25.063Z,8.06
2023-04-22T01:30:52.468Z,8.07
2023-04-22T01:33:19.185Z,8.10
2023-04-22T01:35:46.376Z,8.12
2023-04-22T01:38:13.424Z,8.12
2023-04-22T01:40:40.329Z,8.08
2023-04-22T01:43:09.182Z,8.02
2023-04-22T01:45:35.961Z,7.91
2023-04-22T01:48:02.898Z,7.94
2023-04-22T01:50:29.636Z,7.97
2023-04-22T01:52:57.362Z,8.01
2023-04-22T01:55:24.065Z,8.01
2023-04-22T01:57:51.062Z,8.05
2023-04-22T02:00:18.129Z,8.04
2023-04-22T02:02:44.847Z,8.01
2023-04-22T02:05:11.691Z,7.97
2023-04-22T02:07:38.515Z,7.97
2023-04-22T02:10:06.106Z,7.93
2023-04-22T02:12:32.884Z,7.86
2023-04-22T02:14:59.639Z,7.77
2023-04-22T02:17:27.286Z,7.70
2023-04-22T02:19:53.968Z,7.70
2023-04-22T02:22:22.338Z,7.73
2023-04-22T02:24:49.549Z,7.75
2023-04-22T02:27:16.222Z,7.75
2023-04-22T02:29:42.893Z,7.69
2023-04-22T02:32:09.782Z,7.58
2023-04-22T02:34:36.631Z,7.48
2023-04-22T02:37:03.348Z,7.37
2023-04-22T02:39:30.113Z,7.29
2023-04-22T02:41:56.920Z,7.31
2023-04-22T02:44:23.582Z,7.31
2023-04-22T02:46:50.299Z,7.32
2023-04-22T02:49:17.052Z,7.28
2023-04-22T02:51:43.751Z,7.23
2023-04-22T02:54:10.577Z,7.27
2023-04-22T02:56:37.282Z,7.30
2023-04-22T02:59:04.256Z,7.32
2023-04-22T03:01:31.169Z,7.31
2023-04-22T03:03:58.322Z,7.31
2023-04-22T03:06:25.381Z,7.30
2023-04-22T03:08:52.067Z,7.26
2023-04-22T03:11:18.765Z,7.22
2023-04-22T03:13:45.514Z,7.20
2023-04-22T03:16:12.264Z,7.15
2023-04-22T03:18:39.006Z,7.06
2023-04-22T03:21:06.605Z,7.01
2023-04-22T03:23:33.722Z,7.02
2023-04-22T03:26:00.508Z,6.96
2023-04-22T03:28:27.229Z,6.91
2023-04-22T03:30:53.946Z,6.89
2023-04-22T03:33:20.804Z,6.82
2023-04-22T03:35:51.119Z,6.85
2023-04-22T03:38:17.850Z,6.84
2023-04-22T03:40:44.508Z,6.86
2023-04-22T03:43:11.331Z,6.93
2023-04-22T03:45:38.156Z,6.96
2023-04-22T03:48:05.147Z,6.92
2023-04-22T03:50:31.880Z,6.83
2023-04-22T03:52:58.567Z,6.79
2023-04-22T03:55:25.304Z,6.77
2023-04-22T03:57:51.967Z,6.77
2023-04-22T04:00:18.715Z,6.82
2023-04-22T04:02:45.790Z,6.89
2023-04-22T04:05:14.086Z,6.87
2023-04-22T04:07:41.116Z,6.85
2023-04-22T04:10:08.369Z,6.85
2023-04-22T04:12:35.122Z,6.86
2023-04-22T04:15:01.839Z,6.84
2023-04-22T04:17:28.925Z,6.79
2023-04-22T04:19:55.696Z,6.76
2023-04-22T04:22:22.682Z,6.75
2023-04-22T04:24:49.887Z,6.75
2023-04-22T04:27:16.687Z,6.75
2023-04-22T04:29:43.451Z,6.76
2023-04-22T04:32:10.611Z,6.78
2023-04-22T04:34:40.202Z,6.81
2023-04-22T04:37:06.879Z,6.83
2023-04-22T04:39:33.745Z,6.87
2023-04-22T04:42:00.568Z,6.90
2023-04-22T04:44:27.503Z,6.94
2023-04-22T04:46:55.023Z,6.95
2023-04-22T04:49:22.005Z,6.99
2023-04-22T04:51:49.269Z,7.03
2023-04-22T04:54:16.570Z,7.08
2023-04-22T04:56:43.578Z,7.16
2023-04-22T04:59:10.313Z,7.22
2023-04-22T05:01:37.019Z,7.32
2023-04-22T05:04:03.833Z,7.41
2023-04-22T05:06:31.574Z,7.50
2023-04-22T05:08:58.806Z,7.56
2023-04-22T05:11:25.695Z,7.66
2023-04-22T05:13:52.355Z,7.75
2023-04-22T05:16:24.218Z,7.83
2023-04-22T05:18:50.936Z,7.92
2023-04-22T05:21:17.621Z,7.99
2023-04-22T05:23:44.265Z,8.08
2023-04-22T05:26:11.002Z,8.16
2023-04-22T05:28:37.659Z,8.25
2023-04-22T05:31:04.379Z,8.33
2023-04-22T05:33:31.197Z,8.45
2023-04-22T05:35:58.302Z,8.53
2023-04-22T05:38:25.156Z,8.64
2023-04-22T05:40:51.841Z,8.76
2023-04-22T05:43:18.599Z,8.87
2023-04-22T05:45:45.309Z,8.99
2023-04-22T05:48:12.031Z,9.12
2023-04-22T05:50:38.748Z,9.20
2023-04-22T05:53:05.445Z,9.28
2023-04-22T05:55:32.177Z,9.41
2023-04-22T05:57:58.960Z,9.50
2023-04-22T06:00:25.700Z,9.58
2023-04-22T06:02:52.441Z,9.68
2023-04-22T06:05:19.339Z,9.75
2023-04-22T06:07:46.188Z,9.82
2023-04-22T06:10:12.864Z,9.91
2023-04-22T06:12:39.512Z,10.02
2023-04-22T06:15:06.794Z,10.16
2023-04-22T06:17:33.495Z,10.27
2023-04-22T06:20:00.178Z,10.41
2023-04-22T06:22:26.892Z,10.54
2023-04-22T06:24:53.539Z,10.63
2023-04-22T06:27:20.217Z,10.75
2023-04-22T06:29:46.880Z,10.86
2023-04-22T06:32:13.534Z,10.97
2023-04-22T06:34:40.316Z,11.05
2023-04-22T06:37:07.000Z,11.13
2023-04-22T06:39:33.650Z,11.22
2023-04-22T06:42:01.792Z,11.30
2023-04-22T06:44:29.170Z,11.38
2023-04-22T06:46:57.925Z,11.48
2023-04-22T06:49:25.070Z,11.57
2023-04-22T06:51:51.739Z,11.69
2023-04-22T06:54:18.433Z,11.77
2023-04-22T06:56:45.300Z,11.86
2023-04-22T06:59:12.024Z,11.96
2023-04-22T07:01:38.767Z,12.07
2023-04-22T07:04:05.512Z,12.19
2023-04-22T07:06:32.993Z,12.31
2023-04-22T07:09:00.016Z,12.47
2023-04-22T07:11:27.822Z,12.65
2023-04-22T07:13:54.537Z,12.84
2023-04-22T07:16:21.258Z,13.00
2023-04-22T07:18:48.039Z,13.11
2023-04-22T07:21:15.035Z,13.17
2023-04-22T07:23:41.688Z,13.18
2023-04-22T07:26:08.383Z,13.26
2023-04-22T07:28:35.102Z,13.36
2023-04-22T07:31:02.477Z,13.49
2023-04-22T07:33:29.297Z,13.59
2023-04-22T07:35:55.974Z,13.70
2023-04-22T07:38:22.843Z,13.84
2023-04-22T07:40:49.559Z,14.01
2023-04-22T07:43:16.465Z,14.17
2023-04-22T07:45:43.223Z,14.39
2023-04-22T07:48:10.042Z,14.51
2023-04-22T07:50:38.604Z,14.60
2023-04-22T07:53:06.084Z,14.71
2023-04-22T07:55:33.002Z,14.82
2023-04-22T07:58:01.233Z,14.96
2023-04-22T08:00:28.093Z,15.09
2023-04-22T08:02:54.845Z,15.24
2023-04-22T08:05:21.756Z,15.35
2023-04-22T08:07:48.904Z,15.48
2023-04-22T08:10:15.811Z,15.60
2023-04-22T08:12:42.647Z,15.75
2023-04-22T08:15:09.934Z,15.83
2023-04-22T08:17:36.857Z,16.03
2023-04-22T08:20:06.589Z,16.28
2023-04-22T08:22:36.872Z,16.61
2023-04-22T08:25:03.769Z,16.86
2023-04-22T08:27:30.917Z,17.07
2023-04-22T08:29:57.581Z,17.13
2023-04-22T08:32:26.552Z,17.13
2023-04-22T08:34:57.482Z,17.14
2023-04-22T08:37:28.184Z,17.15
2023-04-22T08:39:54.890Z,17.17
2023-04-22T08:42:23.028Z,17.26
2023-04-22T08:44:50.216Z,17.36
2023-04-22T08:47:18.632Z,17.44
2023-04-22T08:49:46.108Z,17.44
2023-04-22T08:52:15.452Z,17.43
2023-04-22T08:54:42.447Z,17.46
2023-04-22T08:57:11.199Z,17.47
2023-04-22T08:59:39.325Z,17.47
2023-04-22T09:02:07.819Z,17.50
2023-04-22T09:04:34.912Z,17.53
2023-04-22T09:07:02.144Z,17.58
2023-04-22T09:09:32.109Z,17.66
2023-04-22T09:11:58.791Z,17.73
2023-04-22T09:14:26.680Z,17.80
2023-04-22T09:16:53.487Z,17.90
2023-04-22T09:19:24.180Z,18.00
2023-04-22T09:21:53.672Z,18.09
2023-04-22T09:24:21.071Z,18.21
2023-04-22T09:26:48.734Z,18.32
2023-04-22T09:29:16.801Z,18.37
2023-04-22T09:31:49.041Z,18.47
2023-04-22T09:34:15.875Z,18.55
2023-04-22T09:36:44.044Z,18.59
2023-04-22T09:39:11.395Z,18.62
2023-04-22T09:41:39.939Z,18.75
2023-04-22T09:44:14.097Z,18.89
2023-04-22T09:46:43.973Z,19.06
2023-04-22T09:49:11.161Z,19.18
2023-04-22T09:51:42.037Z,19.29
2023-04-22T09:54:10.714Z,19.26
2023-04-22T09:56:52.185Z,19.24
2023-04-22T09:59:28.114Z,19.29
2023-04-22T10:02:04.256Z,19.30
2023-04-22T10:04:31.447Z,19.30
2023-04-22T10:06:58.423Z,19.36
2023-04-22T10:09:25.676Z,19.50
2023-04-22T10:11:55.933Z,19.58
2023-04-22T10:14:23.149Z,19.58
2023-04-22T10:16:54.566Z,19.63
2023-04-22T10:19:23.666Z,19.70
2023-04-22T10:21:54.865Z,19.75
2023-04-22T10:24:21.647Z,19.80
2023-04-22T10:26:56.947Z,19.82
2023-04-22T10:29:26.130Z,19.87
2023-04-22T10:32:05.752Z,19.99
2023-04-22T10:34:32.981Z,20.09
2023-04-22T10:37:13.144Z,20.20
2023-04-22T10:39:42.895Z,20.31
2023-04-22T10:42:12.243Z,20.36
2023-04-22T10:45:05.356Z,20.42
2023-04-22T10:47:33.021Z,20.46
2023-04-22T10:50:21.669Z,20.58
2023-04-22T10:52:59.459Z,20.70
2023-04-22T10:55:27.049Z,20.73
2023-04-22T10:57:54.517Z,20.81
2023-04-22T11:00:41.790Z,20.91
2023-04-22T11:03:17.615Z,20.93
2023-04-22T11:05:45.081Z,20.92
2023-04-22T11:08:20.908Z,20.87
2023-04-22T11:10:50.097Z,20.97
2023-04-22T11:13:19.761Z,21.07
2023-04-22T11:15:48.596Z,21.14
2023-04-22T11:18:26.667Z,21.11
2023-04-22T11:20:54.181Z,21.18
2023-04-22T11:23:28.752Z,21.25
2023-04-22T11:26:01.756Z,21.26
2023-04-22T11:28:29.246Z,21.30
2023-04-22T11:31:07.048Z,21.45
2023-04-22T11:33:34.863Z,21.60
2023-04-22T11:36:02.145Z,21.72
2023-04-22T11:38:28.985Z,21.83
2023-04-22T11:40:58.445Z,21.80
2023-04-22T11:43:25.628Z,21.77
2023-04-22T11:45:52.564Z,21.86
2023-04-22T11:48:19.604Z,21.91
2023-04-22T11:50:48.127Z,21.99
2023-04-22T11:53:16.182Z,21.94
2023-04-22T11:55:44.771Z,21.97
2023-04-22T11:58:27.355Z,22.02
2023-04-22T12:00:56.351Z,22.04
2023-04-22T12:03:25.672Z,22.05
2023-04-22T12:05:54.114Z,22.06
2023-04-22T12:08:26.463Z,22.20
2023-04-22T12:10:56.081Z,22.26
2023-04-22T12:13:25.017Z,22.33
2023-04-22T12:16:15.997Z,22.45
2023-04-22T12:18:52.869Z,22.64
2023-04-22T12:21:21.888Z,22.68
2023-04-22T12:23:54.756Z,22.76
2023-04-22T12:26:26.531Z,22.83
2023-04-22T12:28:54.865Z,22.86
2023-04-22T12:31:21.833Z,22.82
2023-04-22T12:33:48.919Z,22.78
2023-04-22T12:36:16.394Z,22.71
2023-04-22T12:38:43.114Z,22.69
2023-04-22T12:41:09.868Z,22.75
2023-04-22T12:43:37.021Z,22.78
2023-04-22T12:46:04.984Z,22.88
2023-04-22T12:48:32.230Z,23.01
2023-04-22T12:50:59.623Z,23.16
2023-04-22T12:53:27.962Z,23.29
2023-04-22T12:55:55.868Z,23.37
2023-04-22T12:58:22.765Z,23.42
2023-04-22T13:00:49.436Z,23.44
2023-04-22T13:03:16.533Z,23.40
2023-04-22T13:05:45.604Z,23.48
2023-04-22T13:08:12.334Z,23.57
2023-04-22T13:10:39.359Z,23.58
2023-04-22T13:15:37.702Z,23.46
2023-04-22T13:18:04.449Z,23.34
2023-04-22T13:20:31.138Z,23.23
2023-04-22T13:22:58.616Z,23.08
2023-04-22T13:25:25.364Z,22.93
2023-04-22T13:27:52.015Z,22.73
2023-04-22T13:30:18.863Z,22.61
2023-04-22T13:32:46.019Z,22.49
2023-04-22T13:35:12.820Z,22.31
2023-04-22T13:37:39.499Z,22.07
2023-04-22T13:40:06.878Z,21.97
2023-04-22T13:42:34.349Z,21.94
2023-04-22T13:45:01.073Z,21.82
2023-04-22T13:47:27.803Z,21.71
2023-04-22T13:49:54.458Z,21.62
2023-04-22T13:52:21.815Z,21.44
2023-04-22T13:54:48.579Z,21.36
2023-04-22T13:57:15.266Z,21.30
2023-04-22T13:59:42.364Z,21.28
2023-04-22T14:02:09.295Z,21.21
2023-04-22T14:04:36.215Z,21.09
2023-04-22T14:07:04.134Z,21.05
2023-04-22T14:09:31.270Z,21.06
2023-04-22T14:11:58.504Z,21.15
2023-04-22T14:14:28.339Z,21.30
2023-04-22T14:16:55.143Z,21.47
2023-04-22T14:19:25.188Z,21.53
2023-04-22T14:21:52.052Z,21.61
2023-04-22T14:24:19.647Z,21.85
2023-04-22T14:26:46.461Z,21.99
2023-04-22T14:29:13.594Z,22.19
2023-04-22T14:31:40.667Z,22.37
2023-04-22T14:34:07.434Z,22.51
2023-04-22T14:36:34.273Z,22.60
2023-04-22T14:39:01.208Z,22.71
2023-04-22T14:41:28.324Z,22.79
2023-04-22T14:43:55.284Z,22.78
2023-04-22T14:46:22.102Z,22.73
2023-04-22T14:48:48.937Z,22.53
2023-04-22T14:51:15.942Z,22.46
2023-04-22T14:53:43.908Z,22.54
2023-04-22T14:56:12.091Z,22.57
2023-04-22T14:58:38.897Z,22.44
2023-04-22T15:01:07.249Z,22.31
2023-04-22T15:03:35.977Z,22.24
2023-04-22T15:06:03.349Z,22.24
2023-04-22T15:08:30.171Z,22.21
2023-04-22T15:10:57.073Z,22.18
2023-04-22T15:13:23.737Z,22.03
2023-04-22T15:15:50.525Z,21.86
2023-04-22T15:18:17.509Z,21.66
2023-04-22T15:20:44.232Z,21.52
2023-04-22T15:23:11.003Z,21.35
2023-04-22T15:25:37.945Z,21.23
2023-04-22T15:28:04.685Z,21.08
2023-04-22T15:30:31.346Z,21.05
2023-04-22T15:32:58.078Z,20.98
2023-04-22T15:35:24.866Z,20.83
2023-04-22T15:37:52.704Z,20.70
2023-04-22T15:40:19.439Z,20.52
2023-04-22T15:42:46.170Z,20.48
2023-04-22T15:45:12.888Z,20.55
2023-04-22T15:47:41.458Z,20.71
2023-04-22T15:50:09.750Z,20.80
2023-04-22T15:52:38.000Z,20.84
2023-04-22T15:55:08.112Z,20.87
2023-04-22T15:57:35.653Z,20.80
2023-04-22T16:00:11.926Z,20.63
2023-04-22T16:02:40.400Z,20.45
2023-04-22T16:05:07.525Z,20.32
2023-04-22T16:07:34.287Z,20.26
2023-04-22T16:10:01.055Z,20.23
2023-04-22T16:12:27.859Z,20.19
2023-04-22T16:14:54.646Z,20.09
2023-04-22T16:17:21.483Z,19.97
2023-04-22T16:19:48.427Z,19.88
2023-04-22T16:22:15.081Z,19.82
2023-04-22T16:24:44.038Z,19.83
2023-04-22T16:27:16.587Z,19.84
2023-04-22T16:29:43.992Z,19.78
2023-04-22T16:32:11.474Z,19.72
2023-04-22T16:34:38.619Z,19.63
2023-04-22T16:37:10.431Z,19.50
2023-04-22T16:39:41.066Z,19.35
2023-04-22T16:42:07.991Z,19.30
2023-04-22T16:44:40.609Z,19.20
2023-04-22T16:47:07.348Z,19.10
2023-04-22T16:49:34.006Z,19.01
2023-04-22T16:52:00.986Z,18.88
2023-04-22T16:54:28.032Z,18.82
2023-04-22T16:56:54.736Z,18.76
2023-04-22T16:59:21.451Z,18.70
2023-04-22T17:01:48.194Z,18.62
2023-04-22T17:04:15.159Z,18.55
2023-04-22T17:06:42.920Z,18.46
2023-04-22T17:09:09.912Z,18.40
2023-04-22T17:11:36.742Z,18.34
2023-04-22T17:14:03.581Z,18.24
2023-04-22T17:16:30.471Z,18.09
2023-04-22T17:18:57.112Z,17.94
2023-04-22T17:21:23.888Z,17.77
2023-04-22T17:23:50.914Z,17.66
2023-04-22T17:26:17.716Z,17.53
2023-04-22T17:28:44.560Z,17.36
2023-04-22T17:31:11.313Z,17.21
2023-04-22T17:33:37.980Z,17.12
2023-04-22T17:36:04.924Z,17.02
2023-04-22T17:38:31.770Z,16.95
2023-04-22T17:40:59.167Z,16.85
2023-04-22T17:43:26.270Z,16.75
2023-04-22T17:45:53.009Z,16.69
2023-04-22T17:48:19.916Z,16.63
2023-04-22T17:50:46.601Z,16.58
2023-04-22T17:53:13.411Z,16.53
2023-04-22T17:55:40.193Z,16.45
2023-04-22T17:58:06.876Z,16.34
2023-04-22T18:00:34.575Z,16.25
2023-04-22T18:03:01.893Z,16.16
2023-04-22T18:05:28.792Z,16.09
2023-04-22T18:08:02.538Z,16.03
2023-04-22T18:10:31.597Z,15.92
2023-04-22T18:12:58.395Z,15.81
2023-04-22T18:15:25.105Z,15.74
2023-04-22T18:17:52.034Z,15.68
2023-04-22T18:20:19.846Z,15.61
2023-04-22T18:22:49.712Z,15.55
2023-04-22T18:25:16.568Z,15.47
2023-04-22T18:27:43.621Z,15.38
2023-04-22T18:30:10.815Z,15.28
2023-04-22T18:32:38.001Z,15.20
2023-04-22T18:35:05.197Z,15.11
2023-04-22T18:37:34.735Z,15.01
2023-04-22T18:40:02.336Z,14.94
2023-04-22T18:42:29.126Z,14.89
2023-04-22T18:44:55.974Z,14.87
2023-04-22T18:47:22.703Z,14.83
2023-04-22T18:49:49.419Z,14.78
2023-04-22T18:52:17.414Z,14.73
2023-04-22T18:54:44.282Z,14.70
2023-04-22T18:57:11.255Z,14.68
2023-04-22T18:59:38.040Z,14.61
2023-04-22T19:02:06.115Z,14.52
2023-04-22T19:04:32.935Z,14.46
2023-04-22T19:06:59.615Z,14.41
2023-04-22T19:09:26.298Z,14.35
2023-04-22T19:11:53.080Z,14.32
2023-04-22T19:14:19.876Z,14.30
2023-04-22T19:16:46.657Z,14.25
2023-04-22T19:19:13.333Z,14.19
2023-04-22T19:21:40.112Z,14.15
2023-04-22T19:24:06.985Z,14.04
2023-04-22T19:26:34.085Z,13.96
2023-04-22T19:29:01.106Z,13.90
2023-04-22T19:31:28.625Z,13.83
2023-04-22T19:33:55.840Z,13.74
2023-04-22T19:36:22.543Z,13.71
2023-04-22T19:38:49.231Z,13.66
2023-04-22T19:41:16.306Z,13.62
2023-04-22T19:43:43.094Z,13.58
2023-04-22T19:46:09.945Z,13.53
2023-04-22T19:48:37.058Z,13.49
2023-04-22T19:51:05.320Z,13.42
2023-04-22T19:53:33.109Z,13.37
2023-04-22T19:56:00.054Z,13.34
2023-04-22T19:58:28.568Z,13.30
2023-04-22T20:00:56.014Z,13.25
2023-04-22T20:03:23.627Z,13.21
2023-04-22T20:05:50.958Z,13.17
2023-04-22T20:08:19.814Z,13.15
2023-04-22T20:10:49.712Z,13.10
2023-04-22T20:13:17.483Z,13.00
2023-04-22T20:15:44.610Z,12.98
2023-04-22T20:18:12.134Z,12.97
2023-04-22T20:20:40.926Z,12.95
2023-04-22T20:23:12.803Z,12.95
2023-04-22T20:25:44.266Z,12.96
2023-04-22T20:28:11.266Z,12.91
2023-04-22T20:30:38.307Z,12.78
2023-04-22T20:33:05.519Z,12.69
2023-04-22T20:35:32.531Z,12.64
2023-04-22T20:38:02.776Z,12.62
2023-04-22T20:40:29.856Z,12.54
2023-04-22T20:42:58.860Z,12.48
2023-04-22T20:45:27.286Z,12.44
2023-04-22T20:47:54.462Z,12.39
2023-04-22T20:50:21.294Z,12.39
2023-04-22T20:52:49.172Z,12.37
2023-04-22T20:55:17.041Z,12.32
2023-04-22T20:57:43.967Z,12.28
2023-04-22T21:00:11.580Z,12.22
2023-04-22T21:02:40.132Z,12.20
2023-04-22T21:05:07.627Z,12.17
2023-04-22T21:07:35.437Z,12.16
2023-04-22T21:10:02.394Z,12.15
2023-04-22T21:12:29.326Z,12.11
2023-04-22T21:14:56.337Z,12.08
2023-04-22T21:17:32.885Z,12.11
2023-04-22T21:19:59.956Z,12.09
2023-04-22T21:22:26.979Z,12.07
2023-04-22T21:24:53.956Z,12.04
2023-04-22T21:27:22.064Z,12.01
2023-04-22T21:29:49.843Z,11.95
2023-04-22T21:32:17.497Z,11.92
2023-04-22T21:34:45.177Z,11.88
2023-04-22T21:37:12.295Z,11.87
2023-04-22T21:39:40.078Z,11.85
2023-04-22T21:42:09.973Z,11.83
2023-04-22T21:44:37.770Z,11.81
2023-04-22T21:47:05.302Z,11.75
2023-04-22T21:49:32.004Z,11.65
2023-04-22T21:51:59.203Z,11.56
2023-04-22T21:54:25.859Z,11.50
2023-04-22T21:56:52.689Z,11.51
2023-04-22T21:59:19.460Z,11.53
2023-04-22T22:01:46.445Z,11.55
2023-04-22T22:04:15.708Z,11.57
2023-04-22T22:06:42.593Z,11.57
2023-04-22T22:09:09.651Z,11.58
2023-04-22T22:11:36.337Z,11.51
2023-04-22T22:14:03.350Z,11.47
2023-04-22T22:16:31.060Z,11.38
2023-04-22T22:18:58.452Z,11.32
2023-04-22T22:21:25.229Z,11.29
2023-04-22T22:23:52.035Z,11.24
2023-04-22T22:26:19.239Z,11.21
2023-04-22T22:28:45.972Z,11.21
2023-04-22T22:31:12.692Z,11.17
2023-04-22T22:33:39.412Z,11.12
2023-04-22T22:36:06.350Z,11.12
2023-04-22T22:38:33.138Z,11.12
2023-04-22T22:40:59.879Z,11.13
2023-04-22T22:43:27.015Z,11.15
2023-04-22T22:45:54.006Z,11.16
2023-04-22T22:48:21.088Z,11.17
2023-04-22T22:50:49.024Z,11.18
2023-04-22T22:53:16.161Z,11.14
2023-04-22T22:55:42.807Z,11.09
2023-04-22T22:58:09.538Z,11.08
2023-04-22T23:00:37.043Z,11.06
2023-04-22T23:03:04.469Z,10.99
2023-04-22T23:05:31.945Z,10.90
2023-04-22T23:07:58.614Z,10.86
2023-04-22T23:10:25.495Z,10.83
2023-04-22T23:12:52.200Z,10.74
2023-04-22T23:15:18.851Z,10.63
2023-04-22T23:17:45.988Z,10.56
2023-04-22T23:20:12.904Z,10.55
2023-04-22T23:22:40.746Z,10.55
2023-04-22T23:25:08.663Z,10.56
2023-04-22T23:27:36.052Z,10.58
2023-04-22T23:30:04.666Z,10.57
2023-04-22T23:32:33.259Z,10.58
2023-04-22T23:35:01.787Z,10.60
2023-04-22T23:37:29.772Z,10.53
2023-04-22T23:39:56.736Z,10.47
2023-04-22T23:42:23.416Z,10.42
2023-04-22T23:44:50.097Z,10.33
2023-04-22T23:47:17.330Z,10.26
2023-04-22T23:49:44.043Z,10.18
2023-04-22T23:52:13.182Z,10.08
2023-04-22T23:54:41.432Z,10.02
2023-04-22T23:57:08.605Z,9.98
2023-04-22T23:59:35.791Z,9.90
